createdAt,value
2022-09-25T00:01:32.387Z,51.11
2022-09-25T00:05:48.964Z,50.09
2022-09-25T00:10:05.137Z,50.37
2022-09-25T00:14:21.086Z,49.80
2022-09-25T00:18:55.684Z,50.19
2022-09-25T00:23:11.696Z,50.69
2022-09-25T00:27:27.691Z,51.83
2022-09-25T00:31:43.847Z,50.60
2022-09-25T00:36:05.198Z,56.34
2022-09-25T00:40:21.469Z,57.56
2022-09-25T00:45:01.350Z,56.67
2022-09-25T00:49:22.264Z,56.25
2022-09-25T00:53:41.000Z,56.55
2022-09-25T00:57:57.830Z,56.99
2022-09-25T01:02:19.802Z,55.56
2022-09-25T01:06:36.344Z,54.70
2022-09-25T01:10:52.438Z,55.50
2022-09-25T01:15:12.368Z,54.65
2022-09-25T01:19:52.789Z,54.17
2022-09-25T01:24:24.429Z,53.32
2022-09-25T01:29:01.486Z,52.11
2022-09-25T01:33:27.966Z,51.76
2022-09-25T01:37:57.869Z,51.70
2022-09-25T01:42:27.588Z,52.42
2022-09-25T01:46:51.135Z,53.10
2022-09-25T01:51:18.921Z,54.58
2022-09-25T01:55:49.257Z,54.47
2022-09-25T02:00:14.183Z,54.31
2022-09-25T02:04:35.371Z,54.25
2022-09-25T02:08:58.047Z,54.38
2022-09-25T02:13:17.894Z,53.90
2022-09-25T02:18:13.805Z,54.14
2022-09-25T02:22:35.334Z,54.34
2022-09-25T02:26:52.067Z,53.64
2022-09-25T02:31:12.399Z,54.09
2022-09-25T02:35:28.596Z,54.56
2022-09-25T02:39:47.932Z,53.89
2022-09-25T02:44:48.988Z,53.28
2022-09-25T02:49:10.537Z,54.91
2022-09-25T02:53:43.522Z,55.07
2022-09-25T02:58:02.576Z,54.98
2022-09-25T03:02:20.019Z,54.51
2022-09-25T03:06:37.631Z,54.91
2022-09-25T03:10:54.196Z,55.24
2022-09-25T03:15:11.618Z,54.82
2022-09-25T03:19:29.492Z,55.92
2022-09-25T03:23:45.510Z,55.97
2022-09-25T03:28:01.653Z,55.69
2022-09-25T03:32:17.613Z,55.36
2022-09-25T03:36:35.071Z,59.66
2022-09-25T03:40:51.054Z,62.26
2022-09-25T03:45:10.108Z,60.79
2022-09-25T03:49:26.079Z,58.74
2022-09-25T03:53:42.351Z,58.20
2022-09-25T03:57:58.322Z,57.61
2022-09-25T04:02:14.441Z,56.92
2022-09-25T04:06:30.573Z,60.15
2022-09-25T04:10:46.618Z,59.54
2022-09-25T04:15:02.741Z,57.76
2022-09-25T04:19:18.737Z,57.81
2022-09-25T04:23:34.785Z,57.89
2022-09-25T04:27:50.770Z,57.80
2022-09-25T04:32:25.355Z,58.09
2022-09-25T04:36:41.569Z,57.62
2022-09-25T04:40:58.014Z,58.52
2022-09-25T04:45:14.866Z,58.86
2022-09-25T04:49:31.151Z,58.75
2022-09-25T04:53:47.444Z,58.63
2022-09-25T04:58:03.373Z,57.85
2022-09-25T05:02:19.614Z,58.59
2022-09-25T05:06:35.614Z,59.47
2022-09-25T05:10:51.657Z,60.02
2022-09-25T05:15:09.558Z,60.43
2022-09-25T05:19:25.585Z,60.84
2022-09-25T05:23:41.745Z,59.00
2022-09-25T05:28:01.919Z,58.94
2022-09-25T05:32:19.094Z,59.53
2022-09-25T05:36:35.176Z,66.55
2022-09-25T05:40:51.427Z,63.04
2022-09-25T05:45:07.984Z,64.12
2022-09-25T05:49:24.025Z,63.75
2022-09-25T05:53:40.223Z,63.43
2022-09-25T05:58:01.796Z,62.95
2022-09-25T06:02:17.940Z,63.32
2022-09-25T06:06:33.993Z,63.88
2022-09-25T06:10:58.190Z,63.25
2022-09-25T06:15:14.268Z,62.84
2022-09-25T06:19:30.599Z,63.48
2022-09-25T06:23:46.859Z,62.65
2022-09-25T06:28:02.987Z,64.69
2022-09-25T06:32:18.917Z,64.43
2022-09-25T06:36:35.029Z,64.98
2022-09-25T06:40:51.011Z,65.16
2022-09-25T06:45:07.464Z,66.40
2022-09-25T06:49:23.834Z,65.56
2022-09-25T06:53:39.829Z,63.88
2022-09-25T06:57:55.880Z,64.39
2022-09-25T07:02:30.314Z,63.47
2022-09-25T07:06:47.438Z,66.26
2022-09-25T07:11:04.071Z,64.99
2022-09-25T07:15:20.041Z,62.65
2022-09-25T07:19:36.015Z,62.86
2022-09-25T07:23:52.428Z,59.49
2022-09-25T07:28:08.589Z,57.86
2022-09-25T07:32:24.600Z,57.70
2022-09-25T07:36:42.908Z,56.09
2022-09-25T07:40:58.943Z,55.65
2022-09-25T07:45:15.088Z,55.90
2022-09-25T07:49:32.236Z,53.93
2022-09-25T07:53:48.695Z,54.84
2022-09-25T07:58:04.663Z,53.24
2022-09-25T08:02:21.387Z,53.33
2022-09-25T08:06:38.615Z,53.36
2022-09-25T08:10:59.970Z,52.49
2022-09-25T08:15:16.553Z,53.11
2022-09-25T08:19:33.322Z,53.60
2022-09-25T08:23:51.503Z,53.12
2022-09-25T08:28:07.703Z,52.88
2022-09-25T08:32:23.672Z,52.34
2022-09-25T08:36:39.791Z,51.68
2022-09-25T08:41:29.520Z,51.53
2022-09-25T08:46:05.932Z,50.69
2022-09-25T08:50:24.165Z,50.30
2022-09-25T08:54:43.407Z,51.81
2022-09-25T08:59:04.845Z,51.40
2022-09-25T09:03:24.453Z,51.56
2022-09-25T09:07:51.841Z,49.79
2022-09-25T09:12:25.876Z,49.15
2022-09-25T09:17:00.997Z,49.34
2022-09-25T09:21:32.508Z,49.59
2022-09-25T09:26:01.033Z,51.18
2022-09-25T09:30:19.660Z,50.19
2022-09-25T09:35:05.798Z,49.60
2022-09-25T09:39:32.210Z,48.98
2022-09-25T09:43:57.946Z,48.52
2022-09-25T09:48:36.072Z,47.62
2022-09-25T09:52:58.502Z,47.59
2022-09-25T09:57:31.318Z,46.87
2022-09-25T10:01:55.104Z,46.79
2022-09-25T10:06:17.133Z,46.29
2022-09-25T10:10:39.258Z,49.04
2022-09-25T10:14:56.830Z,48.23
2022-09-25T10:19:20.789Z,48.32
2022-09-25T10:23:53.518Z,48.69
2022-09-25T10:28:27.811Z,48.82
2022-09-25T10:33:02.694Z,48.85
2022-09-25T10:37:22.268Z,48.63
2022-09-25T10:41:44.608Z,48.82
2022-09-25T10:46:15.577Z,48.99
2022-09-25T10:50:31.648Z,50.31
2022-09-25T10:54:48.030Z,50.46
2022-09-25T10:59:04.151Z,50.20
2022-09-25T11:03:32.279Z,51.10
2022-09-25T11:07:52.526Z,51.46
2022-09-25T11:12:19.778Z,51.35
2022-09-25T11:16:46.898Z,49.04
2022-09-25T11:21:05.409Z,50.96
2022-09-25T11:25:38.160Z,50.80
2022-09-25T11:29:59.656Z,51.00
2022-09-25T11:34:47.708Z,51.20
2022-09-25T11:39:29.715Z,50.30
2022-09-25T11:44:05.306Z,48.91
2022-09-25T11:48:39.229Z,49.39
2022-09-25T11:53:23.502Z,51.35
2022-09-25T11:58:26.433Z,52.93
2022-09-25T12:03:17.942Z,51.36
2022-09-25T12:07:43.372Z,51.47
2022-09-25T12:12:17.437Z,53.14
2022-09-25T12:16:53.858Z,54.13
2022-09-25T12:21:32.270Z,56.25
2022-09-25T12:25:54.287Z,55.76
2022-09-25T12:30:18.842Z,58.60
2022-09-25T12:34:40.696Z,58.34
2022-09-25T12:39:24.018Z,61.51
2022-09-25T12:44:11.499Z,63.60
2022-09-25T12:48:40.989Z,64.58
2022-09-25T12:53:04.135Z,64.13
2022-09-25T12:57:28.449Z,64.44
2022-09-25T13:02:23.331Z,63.88
2022-09-25T13:07:00.390Z,63.44
2022-09-25T13:11:39.228Z,64.29
2022-09-25T13:16:02.312Z,64.09
2022-09-25T13:20:28.154Z,65.70
2022-09-25T13:24:46.810Z,65.60
2022-09-25T13:29:21.041Z,64.81
2022-09-25T13:33:44.010Z,67.04
2022-09-25T13:38:37.680Z,66.01
2022-09-25T13:42:54.571Z,64.51
2022-09-25T13:47:39.845Z,66.22
2022-09-25T13:51:55.830Z,66.16
2022-09-25T13:56:20.834Z,65.93
2022-09-25T14:00:37.316Z,65.67
2022-09-25T14:04:53.362Z,65.85
2022-09-25T14:09:17.129Z,66.17
2022-09-25T14:13:33.734Z,64.31
2022-09-25T14:17:52.926Z,65.78
2022-09-25T14:22:17.006Z,66.24
2022-09-25T14:26:32.998Z,66.42
2022-09-25T14:31:11.637Z,66.16
2022-09-25T14:35:59.758Z,67.70
2022-09-25T14:40:16.290Z,67.39
2022-09-25T14:44:57.707Z,67.99
2022-09-25T14:49:46.994Z,67.94
2022-09-25T14:54:06.061Z,66.50
2022-09-25T14:58:24.980Z,67.29
2022-09-25T15:02:43.390Z,67.04
2022-09-25T15:07:13.276Z,66.67
2022-09-25T15:11:43.170Z,67.49
2022-09-25T15:16:18.004Z,66.88
2022-09-25T15:20:35.410Z,66.77
2022-09-25T15:24:55.237Z,67.40
2022-09-25T15:29:38.613Z,67.63
2022-09-25T15:34:11.689Z,67.99
2022-09-25T15:38:36.222Z,68.14
2022-09-25T15:42:52.411Z,66.50
2022-09-25T15:47:29.105Z,67.92
2022-09-25T15:51:58.336Z,68.12
2022-09-25T15:56:43.784Z,67.63
2022-09-25T16:01:22.148Z,65.83
2022-09-25T16:05:44.219Z,67.99
2022-09-25T16:10:17.139Z,67.52
2022-09-25T16:14:33.530Z,68.20
2022-09-25T16:18:49.631Z,68.51
2022-09-25T16:23:08.077Z,69.08
2022-09-25T16:27:32.361Z,67.88
2022-09-25T16:31:54.187Z,66.91
2022-09-25T16:36:17.706Z,67.25
2022-09-25T16:40:38.599Z,68.36
2022-09-25T16:45:13.063Z,67.77
2022-09-25T16:49:29.134Z,67.39
2022-09-25T16:53:46.579Z,67.62
2022-09-25T16:58:03.576Z,68.26
2022-09-25T17:02:48.534Z,67.82
2022-09-25T17:07:05.556Z,66.87
2022-09-25T17:11:26.584Z,67.88
2022-09-25T17:15:43.412Z,67.70
2022-09-25T17:19:59.850Z,67.26
2022-09-25T17:24:17.187Z,68.26
2022-09-25T17:28:33.846Z,68.47
2022-09-25T17:32:51.570Z,68.57
2022-09-25T17:37:08.493Z,68.11
2022-09-25T17:41:30.605Z,68.25
2022-09-25T17:45:50.075Z,68.44
2022-09-25T17:50:06.799Z,69.46
2022-09-25T17:54:23.447Z,69.30
2022-09-25T17:58:42.222Z,69.55
2022-09-25T18:02:59.628Z,68.25
2022-09-25T18:07:15.818Z,68.80
2022-09-25T18:11:34.169Z,69.05
2022-09-25T18:15:59.236Z,69.21
2022-09-25T18:20:33.810Z,68.22
2022-09-25T18:24:56.684Z,67.80
2022-09-25T18:29:19.907Z,68.17
2022-09-25T18:33:36.140Z,69.40
2022-09-25T18:37:52.342Z,69.28
2022-09-25T18:42:08.560Z,69.45
2022-09-25T18:46:24.955Z,69.64
2022-09-25T18:50:41.901Z,68.96
2022-09-25T18:55:00.438Z,70.41
2022-09-25T18:59:16.582Z,69.71
2022-09-25T19:03:35.865Z,69.73
2022-09-25T19:07:55.099Z,70.62
2022-09-25T19:12:15.972Z,71.21
2022-09-25T19:16:38.131Z,69.45
2022-09-25T19:20:54.888Z,70.21
2022-09-25T19:25:11.435Z,70.63
2022-09-25T19:29:27.570Z,70.15
2022-09-25T19:33:44.480Z,68.79
2022-09-25T19:38:00.599Z,68.81
2022-09-25T19:42:16.670Z,69.61
2022-09-25T19:46:33.139Z,69.75
2022-09-25T19:50:50.382Z,70.38
2022-09-25T19:55:06.768Z,70.06
2022-09-25T19:59:23.242Z,69.96
2022-09-25T20:03:39.997Z,69.05
2022-09-25T20:07:55.976Z,68.19
2022-09-25T20:12:12.190Z,70.06
2022-09-25T20:16:29.428Z,70.35
2022-09-25T20:20:45.690Z,70.06
2022-09-25T20:25:04.095Z,70.63
2022-09-25T20:29:20.137Z,71.01
2022-09-25T20:33:36.681Z,69.56
2022-09-25T20:37:52.979Z,69.34
2022-09-25T20:42:09.622Z,68.56
2022-09-25T20:46:26.994Z,68.64
2022-09-25T20:50:50.484Z,68.29
2022-09-25T20:55:06.498Z,68.21
2022-09-25T20:59:23.937Z,69.14
2022-09-25T21:03:42.594Z,68.56
2022-09-25T21:07:58.574Z,67.92
2022-09-25T21:12:14.938Z,67.49
2022-09-25T21:16:32.451Z,68.31
2022-09-25T21:20:48.467Z,68.83
2022-09-25T21:25:05.564Z,68.06
2022-09-25T21:29:21.646Z,68.85
2022-09-25T21:33:38.085Z,69.10
2022-09-25T21:37:54.154Z,69.28
2022-09-25T21:42:10.200Z,68.62
2022-09-25T21:46:27.553Z,69.67
2022-09-25T21:50:53.558Z,68.47
2022-09-25T21:55:10.430Z,68.89
2022-09-25T21:59:26.533Z,68.81
2022-09-25T22:03:45.579Z,68.50
2022-09-25T22:08:02.110Z,68.23
2022-09-25T22:12:18.058Z,69.04
2022-09-25T22:16:36.821Z,68.38
2022-09-25T22:20:53.603Z,69.29
2022-09-25T22:25:09.780Z,68.50
2022-09-25T22:29:25.963Z,68.78
2022-09-25T22:33:42.635Z,68.55
2022-09-25T22:37:58.600Z,67.90
2022-09-25T22:42:14.727Z,67.88
2022-09-25T22:46:30.816Z,68.11
2022-09-25T22:50:55.025Z,67.98
2022-09-25T22:55:10.966Z,68.40
2022-09-25T22:59:27.029Z,68.49
2022-09-25T23:03:42.970Z,69.57
2022-09-25T23:07:58.953Z,69.75
2022-09-25T23:12:14.976Z,69.43
2022-09-25T23:16:32.476Z,68.58
2022-09-25T23:20:55.123Z,69.12
2022-09-25T23:25:11.285Z,68.33
2022-09-25T23:29:27.316Z,67.82
2022-09-25T23:33:43.825Z,68.63
2022-09-25T23:38:00.329Z,68.81
2022-09-25T23:42:16.303Z,68.77
2022-09-25T23:46:34.804Z,69.00
2022-09-25T23:50:52.707Z,69.04
2022-09-25T23:55:08.965Z,68.19
2022-09-25T23:59:25.427Z,68.92
